createdAt,value
2022-08-30T00:01:06.513Z,95690.72
2022-08-30T00:03:36.994Z,95694.75
2022-08-30T00:06:06.040Z,95696.41
2022-08-30T00:08:33.929Z,95695.88
2022-08-30T00:11:02.189Z,95699.31
2022-08-30T00:13:29.359Z,95704.63
2022-08-30T00:15:58.354Z,95697.13
2022-08-30T00:18:25.580Z,95693.69
2022-08-30T00:20:53.279Z,95690.19
2022-08-30T00:23:20.820Z,95682.16
2022-08-30T00:25:48.384Z,95684.03
2022-08-30T00:28:15.994Z,95687.28
2022-08-30T00:30:44.516Z,95687.34
2022-08-30T00:33:14.703Z,95687.34
2022-08-30T00:35:43.197Z,95690.72
2022-08-30T00:38:12.667Z,95682.88
2022-08-30T00:40:43.369Z,95686.78
2022-08-30T00:43:19.588Z,95684.59
2022-08-30T00:45:47.467Z,95687.06
2022-08-30T00:48:16.485Z,95685.91
2022-08-30T00:50:48.879Z,95692.88
2022-08-30T00:53:23.027Z,95691.63
2022-08-30T00:55:51.115Z,95691.63
2022-08-30T00:58:27.739Z,95686.25
2022-08-30T01:01:00.404Z,95691.41
2022-08-30T01:03:32.908Z,95686.25
2022-08-30T01:06:02.824Z,95679.88
2022-08-30T01:08:30.054Z,95672.16
2022-08-30T01:10:58.502Z,95674.84
2022-08-30T01:13:27.880Z,95671.63
2022-08-30T01:15:56.521Z,95672.91
2022-08-30T01:18:25.403Z,95674.00
2022-08-30T01:21:04.937Z,95675.84
2022-08-30T01:23:36.582Z,95678.00
2022-08-30T01:26:06.438Z,95681.13
2022-08-30T01:28:35.385Z,95681.13
2022-08-30T01:31:03.160Z,95682.72
2022-08-30T01:33:30.872Z,95685.44
2022-08-30T01:36:01.437Z,95680.69
2022-08-30T01:38:35.078Z,95678.16
2022-08-30T01:41:11.769Z,95678.75
2022-08-30T01:43:38.959Z,95682.03
2022-08-30T01:46:06.347Z,95675.94
2022-08-30T01:48:33.563Z,95680.00
2022-08-30T01:51:02.796Z,95679.75
2022-08-30T01:53:30.007Z,95686.25
2022-08-30T01:55:58.925Z,95679.75
2022-08-30T01:58:26.177Z,95683.28
2022-08-30T02:00:53.442Z,95675.25
2022-08-30T02:03:20.625Z,95687.34
2022-08-30T02:05:47.945Z,95676.38
2022-08-30T02:08:15.521Z,95689.16
2022-08-30T02:10:42.743Z,95686.56
2022-08-30T02:13:11.295Z,95694.28
2022-08-30T02:15:41.688Z,95692.22
2022-08-30T02:18:09.250Z,95684.81
2022-08-30T02:20:38.640Z,95688.91
2022-08-30T02:23:05.706Z,95690.50
2022-08-30T02:25:33.005Z,95693.13
2022-08-30T02:28:00.344Z,95697.34
2022-08-30T02:30:29.953Z,95692.09
2022-08-30T02:32:57.262Z,95688.97
2022-08-30T02:35:24.347Z,95682.31
2022-08-30T02:37:51.604Z,95686.81
2022-08-30T02:40:18.921Z,95676.22
2022-08-30T02:42:46.165Z,95675.47
2022-08-30T02:45:13.459Z,95677.38
2022-08-30T02:47:46.723Z,95674.13
2022-08-30T02:50:14.226Z,95673.31
2022-08-30T02:52:42.236Z,95677.38
2022-08-30T02:55:12.368Z,95675.78
2022-08-30T02:57:42.547Z,95676.28
2022-08-30T03:00:12.983Z,95673.84
2022-08-30T03:02:41.986Z,95671.94
2022-08-30T03:05:11.242Z,95679.78
2022-08-30T03:07:38.381Z,95677.69
2022-08-30T03:10:06.324Z,95672.84
2022-08-30T03:12:34.533Z,95672.66
2022-08-30T03:15:06.046Z,95673.66
2022-08-30T03:17:33.251Z,95673.44
2022-08-30T03:20:02.005Z,95680.63
2022-08-30T03:22:29.706Z,95689.25
2022-08-30T03:24:57.047Z,95679.38
2022-08-30T03:27:24.240Z,95679.97
2022-08-30T03:29:51.460Z,95678.31
2022-08-30T03:32:19.166Z,95676.16
2022-08-30T03:34:46.406Z,95661.81
2022-08-30T03:37:15.048Z,95668.50
2022-08-30T03:39:42.585Z,95669.84
2022-08-30T03:42:09.734Z,95666.13
2022-08-30T03:44:36.964Z,95667.69
2022-08-30T03:47:06.264Z,95664.31
2022-08-30T03:49:33.832Z,95668.06
2022-08-30T03:52:00.988Z,95665.97
2022-08-30T03:54:29.928Z,95658.47
2022-08-30T03:56:57.284Z,95663.28
2022-08-30T03:59:24.444Z,95664.88
2022-08-30T04:01:51.677Z,95660.91
2022-08-30T04:04:21.094Z,95662.25
2022-08-30T04:06:49.569Z,95664.16
2022-08-30T04:09:18.120Z,95654.81
2022-08-30T04:11:47.440Z,95666.28
2022-08-30T04:14:14.727Z,95669.75
2022-08-30T04:16:42.066Z,95671.63
2022-08-30T04:19:09.564Z,95667.66
2022-08-30T04:21:42.949Z,95672.19
2022-08-30T04:24:10.690Z,95668.19
2022-08-30T04:26:38.151Z,95663.94
2022-08-30T04:29:06.810Z,95664.72
2022-08-30T04:31:34.280Z,95666.59
2022-08-30T04:34:01.564Z,95667.66
2022-08-30T04:36:28.806Z,95670.56
2022-08-30T04:38:56.025Z,95660.94
2022-08-30T04:41:23.230Z,95663.09
2022-08-30T04:43:51.059Z,95665.78
2022-08-30T04:46:20.389Z,95661.22
2022-08-30T04:48:47.867Z,95662.56
2022-08-30T04:51:17.688Z,95661.28
2022-08-30T04:53:45.717Z,95656.97
2022-08-30T04:56:15.105Z,95656.97
2022-08-30T04:58:42.269Z,95654.34
2022-08-30T05:01:13.853Z,95656.97
2022-08-30T05:03:42.896Z,95656.50
2022-08-30T05:06:12.013Z,95665.81
2022-08-30T05:08:39.200Z,95663.66
2022-08-30T05:11:13.944Z,95661.78
2022-08-30T05:13:41.105Z,95665.81
2022-08-30T05:16:08.926Z,95666.31
2022-08-30T05:18:37.433Z,95663.41
2022-08-30T05:21:10.171Z,95680.50
2022-08-30T05:23:38.585Z,95677.53
2022-08-30T05:26:07.058Z,95675.41
2022-08-30T05:28:34.882Z,95683.69
2022-08-30T05:31:03.400Z,95675.38
2022-08-30T05:33:30.546Z,95673.22
2022-08-30T05:36:01.864Z,95664.16
2022-08-30T05:38:30.405Z,95668.63
2022-08-30T05:40:57.507Z,95671.00
2022-08-30T05:43:28.880Z,95676.06
2022-08-30T05:46:00.980Z,95676.03
2022-08-30T05:48:28.591Z,95681.88
2022-08-30T05:51:03.765Z,95673.84
2022-08-30T05:53:32.357Z,95676.81
2022-08-30T05:56:01.714Z,95680.31
2022-08-30T05:58:29.181Z,95675.97
2022-08-30T06:00:56.504Z,95677.59
2022-08-30T06:03:23.758Z,95683.16
2022-08-30T06:05:55.009Z,95693.31
2022-08-30T06:08:22.735Z,95684.19
2022-08-30T06:10:51.423Z,95689.25
2022-08-30T06:13:18.711Z,95686.34
2022-08-30T06:15:45.982Z,95692.00
2022-08-30T06:18:13.603Z,95675.41
2022-08-30T06:20:42.041Z,95687.22
2022-08-30T06:23:09.704Z,95682.69
2022-08-30T06:25:41.321Z,95680.78
2022-08-30T06:28:12.208Z,95685.91
2022-08-30T06:30:42.188Z,95687.25
2022-08-30T06:33:10.090Z,95684.78
2022-08-30T06:35:46.820Z,95682.13
2022-08-30T06:38:24.581Z,95680.53
2022-08-30T06:40:51.854Z,95679.53
2022-08-30T06:43:20.371Z,95683.13
2022-08-30T06:45:47.487Z,95681.81
2022-08-30T06:48:14.641Z,95681.16
2022-08-30T06:50:42.234Z,95673.09
2022-08-30T06:53:09.807Z,95677.09
2022-08-30T06:55:37.633Z,95681.03
2022-08-30T06:58:05.203Z,95686.59
2022-08-30T07:00:33.830Z,95674.75
2022-08-30T07:03:01.103Z,95676.06
2022-08-30T07:05:28.464Z,95676.28
2022-08-30T07:07:55.655Z,95682.97
2022-08-30T07:10:22.765Z,95675.75
2022-08-30T07:12:49.858Z,95683.59
2022-08-30T07:15:17.177Z,95671.16
2022-08-30T07:17:45.596Z,95663.72
2022-08-30T07:20:12.804Z,95658.97
2022-08-30T07:22:39.864Z,95660.63
2022-08-30T07:25:07.238Z,95664.81
2022-08-30T07:27:34.364Z,95669.50
2022-08-30T07:30:01.645Z,95673.13
2022-08-30T07:32:29.084Z,95665.13
2022-08-30T07:34:57.644Z,95671.94
2022-08-30T07:37:24.797Z,95674.31
2022-08-30T07:39:52.605Z,95680.66
2022-08-30T07:42:19.847Z,95683.72
2022-08-30T07:44:47.585Z,95686.88
2022-08-30T07:47:14.606Z,95679.31
2022-08-30T07:49:41.708Z,95681.09
2022-08-30T07:52:10.296Z,95687.75
2022-08-30T07:54:37.347Z,95692.44
2022-08-30T07:57:04.799Z,95691.63
2022-08-30T07:59:34.212Z,95698.03
2022-08-30T08:02:03.688Z,95700.63
2022-08-30T08:04:30.865Z,95694.47
2022-08-30T08:06:58.027Z,95696.16
2022-08-30T08:09:26.605Z,95706.41
2022-08-30T08:11:53.765Z,95707.41
2022-08-30T08:14:20.987Z,95700.03
2022-08-30T08:16:48.280Z,95714.19
2022-08-30T08:19:15.557Z,95711.00
2022-08-30T08:21:42.756Z,95713.22
2022-08-30T08:24:09.894Z,95709.50
2022-08-30T08:26:40.938Z,95704.81
2022-08-30T08:29:13.089Z,95708.59
2022-08-30T08:31:40.449Z,95707.28
2022-08-30T08:34:08.504Z,95709.34
2022-08-30T08:36:36.596Z,95700.47
2022-08-30T08:39:06.048Z,95712.75
2022-08-30T08:41:50.251Z,95698.84
2022-08-30T08:44:34.448Z,95698.94
2022-08-30T08:47:13.794Z,95698.25
2022-08-30T08:49:45.443Z,95700.31
2022-08-30T08:52:24.435Z,95697.06
2022-08-30T08:54:56.138Z,95703.75
2022-08-30T08:57:34.885Z,95705.53
2022-08-30T09:00:03.767Z,95701.63
2022-08-30T09:02:41.654Z,95707.38
2022-08-30T09:05:12.205Z,95706.94
2022-08-30T09:07:43.950Z,95702.06
2022-08-30T09:10:11.228Z,95704.59
2022-08-30T09:12:40.950Z,95701.75
2022-08-30T09:15:19.429Z,95696.94
2022-08-30T09:17:53.934Z,95698.31
2022-08-30T09:20:31.726Z,95706.72
2022-08-30T09:23:10.910Z,95706.41
2022-08-30T09:25:41.889Z,95698.75
2022-08-30T09:28:13.733Z,95713.25
2022-08-30T09:30:57.763Z,95710.94
2022-08-30T09:33:25.000Z,95710.00
2022-08-30T09:35:54.267Z,95706.31
2022-08-30T09:38:26.681Z,95709.19
2022-08-30T09:40:56.398Z,95709.41
2022-08-30T09:43:28.818Z,95707.44
2022-08-30T09:46:10.935Z,95705.13
2022-08-30T09:48:46.104Z,95701.56
2022-08-30T09:51:41.501Z,95709.00
2022-08-30T09:54:19.882Z,95703.03
2022-08-30T09:57:04.312Z,95705.41
2022-08-30T09:59:55.792Z,95703.41
2022-08-30T10:02:51.330Z,95705.22
2022-08-30T10:05:27.789Z,95705.53
2022-08-30T10:08:08.545Z,95708.22
2022-08-30T10:10:51.364Z,95709.50
2022-08-30T10:13:42.908Z,95711.59
2022-08-30T10:16:27.787Z,95712.94
2022-08-30T10:19:06.498Z,95709.13
2022-08-30T10:21:42.102Z,95715.25
2022-08-30T10:24:20.810Z,95714.91
2022-08-30T10:26:55.542Z,95710.44
2022-08-30T10:29:29.661Z,95714.63
2022-08-30T10:32:05.624Z,95710.94
2022-08-30T10:34:39.625Z,95715.44
2022-08-30T10:37:11.631Z,95712.28
2022-08-30T10:39:46.734Z,95713.19
2022-08-30T10:42:25.966Z,95711.91
2022-08-30T10:45:04.113Z,95707.53
2022-08-30T10:47:43.565Z,95707.03
2022-08-30T10:50:16.545Z,95703.53
2022-08-30T10:53:07.364Z,95709.00
2022-08-30T10:55:39.720Z,95705.94
2022-08-30T10:58:07.664Z,95698.94
2022-08-30T11:00:47.262Z,95700.72
2022-08-30T11:04:00.891Z,95711.69
2022-08-30T11:06:40.748Z,95705.41
2022-08-30T11:09:34.268Z,95705.16
2022-08-30T11:12:31.179Z,95702.75
2022-08-30T11:15:11.643Z,95707.16
2022-08-30T11:17:53.139Z,95709.03
2022-08-30T11:20:34.633Z,95700.91
2022-08-30T11:23:26.920Z,95689.88
2022-08-30T11:25:59.618Z,95701.53
2022-08-30T11:29:03.621Z,95698.13
2022-08-30T11:31:37.002Z,95692.97
2022-08-30T11:34:05.838Z,95699.16
2022-08-30T11:37:09.508Z,95698.72
2022-08-30T11:39:55.106Z,95692.75
2022-08-30T11:42:30.339Z,95691.34
2022-08-30T11:45:34.587Z,95692.06
2022-08-30T11:48:04.446Z,95688.97
2022-08-30T11:50:43.390Z,95695.88
2022-08-30T11:53:29.484Z,95686.31
2022-08-30T11:56:06.103Z,95687.19
2022-08-30T11:58:46.982Z,95681.94
2022-08-30T12:01:42.290Z,95680.94
2022-08-30T12:04:15.107Z,95674.78
2022-08-30T12:06:54.982Z,95673.34
2022-08-30T12:10:01.325Z,95673.56
2022-08-30T12:12:55.046Z,95674.66
2022-08-30T12:15:54.816Z,95677.22
2022-08-30T12:18:32.082Z,95681.34
2022-08-30T12:21:09.864Z,95679.53
2022-08-30T12:23:51.723Z,95684.09
2022-08-30T12:26:30.239Z,95685.75
2022-08-30T12:29:13.169Z,95685.56
2022-08-30T12:31:45.006Z,95686.69
2022-08-30T12:34:23.231Z,95679.00
2022-08-30T12:36:56.551Z,95686.88
2022-08-30T12:39:25.769Z,95686.38
2022-08-30T12:41:52.889Z,95678.09
2022-08-30T12:44:25.385Z,95664.94
2022-08-30T12:46:59.631Z,95666.63
2022-08-30T12:49:32.188Z,95662.06
2022-08-30T12:52:18.790Z,95655.38
2022-08-30T12:54:46.762Z,95652.69
2022-08-30T12:57:32.416Z,95651.63
2022-08-30T13:00:06.089Z,95653.59
2022-08-30T13:02:46.015Z,95650.44
2022-08-30T13:05:45.527Z,95648.22
2022-08-30T13:08:19.943Z,95642.25
2022-08-30T13:10:58.698Z,95632.91
2022-08-30T13:13:34.181Z,95628.31
2022-08-30T13:16:22.982Z,95624.25
2022-08-30T13:18:53.679Z,95623.97
2022-08-30T13:21:28.667Z,95622.56
2022-08-30T13:23:59.736Z,95619.06
2022-08-30T13:26:32.109Z,95605.44
2022-08-30T13:29:02.495Z,95596.19
2022-08-30T13:31:32.093Z,95596.69
2022-08-30T13:34:00.259Z,95591.69
2022-08-30T13:36:31.358Z,95576.47
2022-08-30T13:38:59.618Z,95581.97
2022-08-30T13:41:30.136Z,95583.66
2022-08-30T13:44:12.001Z,95569.53
2022-08-30T13:46:48.565Z,95579.19
2022-08-30T13:52:22.966Z,95584.06
2022-08-30T13:54:52.333Z,95572.63
2022-08-30T14:00:14.548Z,95562.63
2022-08-30T14:02:47.809Z,95567.44
2022-08-30T14:05:47.064Z,95574.59
2022-08-30T14:08:44.435Z,95568.94
2022-08-30T14:10:57.001Z,95562.63
2022-08-30T14:13:25.404Z,95558.66
2022-08-30T14:18:45.179Z,95559.50
2022-08-30T14:21:12.529Z,95551.25
2022-08-30T14:23:39.667Z,95534.34
2022-08-30T14:26:17.368Z,95529.25
2022-08-30T14:28:44.825Z,95525.50
2022-08-30T14:31:12.246Z,95523.03
2022-08-30T14:33:41.264Z,95526.22
2022-08-30T14:36:15.662Z,95524.50
2022-08-30T14:38:44.923Z,95519.09
2022-08-30T14:41:12.086Z,95515.84
2022-08-30T14:43:39.542Z,95514.91
2022-08-30T14:46:06.951Z,95514.31
2022-08-30T14:48:35.302Z,95514.69
2022-08-30T14:51:03.786Z,95514.25
2022-08-30T14:53:32.763Z,95502.25
2022-08-30T14:55:59.965Z,95505.31
2022-08-30T14:58:27.604Z,95506.03
2022-08-30T15:00:54.759Z,95505.13
2022-08-30T15:03:21.897Z,95498.78
2022-08-30T15:05:52.979Z,95498.41
2022-08-30T15:08:20.420Z,95500.25
2022-08-30T15:10:48.938Z,95500.31
2022-08-30T15:13:18.420Z,95497.00
2022-08-30T15:15:45.598Z,95488.09
2022-08-30T15:18:12.876Z,95491.50
2022-08-30T15:20:46.077Z,95487.75
2022-08-30T15:23:13.337Z,95485.75
2022-08-30T15:25:44.077Z,95474.81
2022-08-30T15:28:12.714Z,95481.47
2022-08-30T15:30:40.956Z,95476.50
2022-08-30T15:33:10.397Z,95476.63
2022-08-30T15:35:37.457Z,95476.63
2022-08-30T15:38:04.718Z,95467.53
2022-08-30T15:40:32.521Z,95471.78
2022-08-30T15:42:59.796Z,95468.88
2022-08-30T15:45:29.359Z,95473.44
2022-08-30T15:47:59.945Z,95473.25
2022-08-30T15:50:28.143Z,95475.66
2022-08-30T15:52:55.558Z,95475.47
2022-08-30T15:55:22.917Z,95473.19
2022-08-30T15:57:50.357Z,95485.22
2022-08-30T16:00:18.016Z,95487.63
2022-08-30T16:02:46.638Z,95484.25
2022-08-30T16:05:14.617Z,95492.13
2022-08-30T16:07:41.729Z,95490.34
2022-08-30T16:10:09.938Z,95484.16
2022-08-30T16:12:37.056Z,95494.72
2022-08-30T16:15:05.017Z,95496.50
2022-08-30T16:17:32.217Z,95506.06
2022-08-30T16:20:00.819Z,95498.38
2022-08-30T16:22:28.161Z,95505.34
2022-08-30T16:24:55.277Z,95512.81
2022-08-30T16:27:22.518Z,95511.22
2022-08-30T16:29:50.073Z,95518.47
2022-08-30T16:32:18.016Z,95515.13
2022-08-30T16:34:45.695Z,95509.53
2022-08-30T16:37:14.414Z,95518.69
2022-08-30T16:39:46.502Z,95512.63
2022-08-30T16:42:14.838Z,95520.09
2022-08-30T16:44:49.570Z,95530.19
2022-08-30T16:47:18.028Z,95538.66
2022-08-30T16:49:45.516Z,95551.28
2022-08-30T16:52:14.077Z,95559.72
2022-08-30T16:54:41.214Z,95566.16
2022-08-30T16:57:08.457Z,95559.28
2022-08-30T16:59:37.636Z,95574.91
2022-08-30T17:02:04.908Z,95584.41
2022-08-30T17:04:32.077Z,95591.47
2022-08-30T17:06:59.117Z,95627.06
2022-08-30T17:09:27.717Z,95640.84
2022-08-30T17:11:54.878Z,95639.28
2022-08-30T17:14:27.476Z,95634.69
2022-08-30T17:16:55.455Z,95640.63
2022-08-30T17:19:26.924Z,95634.19
2022-08-30T17:21:56.715Z,95628.78
2022-08-30T17:24:27.562Z,95606.72
2022-08-30T17:26:58.411Z,95612.06
2022-08-30T17:29:26.382Z,95620.22
2022-08-30T17:31:55.682Z,95625.44
2022-08-30T17:34:26.647Z,95638.41
2022-08-30T17:36:54.335Z,95644.38
2022-08-30T17:39:22.207Z,95648.50
2022-08-30T17:41:52.754Z,95639.34
2022-08-30T17:44:22.622Z,95645.00
2022-08-30T17:46:55.223Z,95655.44
2022-08-30T17:49:23.255Z,95644.50
2022-08-30T17:51:55.646Z,95652.06
2022-08-30T17:54:25.733Z,95650.97
2022-08-30T17:56:55.938Z,95653.03
2022-08-30T17:59:24.946Z,95649.56
2022-08-30T18:01:57.441Z,95644.63
2022-08-30T18:04:27.586Z,95657.47
2022-08-30T18:06:55.488Z,95663.59
2022-08-30T18:09:25.226Z,95666.00
2022-08-30T18:12:05.045Z,95675.25
2022-08-30T18:14:35.744Z,95665.91
2022-08-30T18:17:07.768Z,95674.72
2022-08-30T18:19:35.285Z,95669.16
2022-08-30T18:22:03.222Z,95675.88
2022-08-30T18:24:31.461Z,95687.41
2022-08-30T18:27:01.226Z,95686.59
2022-08-30T18:29:31.378Z,95684.75
2022-08-30T18:31:59.505Z,95679.72
2022-08-30T18:34:26.665Z,95672.00
2022-08-30T18:36:53.887Z,95672.88
2022-08-30T18:39:21.328Z,95679.81
2022-08-30T18:41:48.686Z,95695.88
2022-08-30T18:44:27.949Z,95699.63
2022-08-30T18:46:57.798Z,95719.66
2022-08-30T18:49:25.109Z,95735.66
2022-08-30T18:51:52.589Z,95741.53
2022-08-30T18:54:20.564Z,95746.31
2022-08-30T18:56:47.966Z,95749.53
2022-08-30T18:59:17.565Z,95752.78
2022-08-30T19:01:45.504Z,95749.28
2022-08-30T19:04:22.293Z,95750.09
2022-08-30T19:06:57.407Z,95734.59
2022-08-30T19:09:24.647Z,95727.94
2022-08-30T19:11:54.688Z,95728.75
2022-08-30T19:14:23.207Z,95731.41
2022-08-30T19:16:50.767Z,95743.19
2022-08-30T19:19:17.926Z,95749.03
2022-08-30T19:21:45.005Z,95748.50
2022-08-30T19:24:12.505Z,95750.63
2022-08-30T19:26:43.279Z,95749.06
2022-08-30T19:29:14.350Z,95748.47
2022-08-30T19:31:43.349Z,95748.50
2022-08-30T19:34:11.950Z,95744.50
2022-08-30T19:36:39.127Z,95749.56
2022-08-30T19:39:10.166Z,95751.16
2022-08-30T19:41:38.590Z,95754.63
2022-08-30T19:44:09.051Z,95751.72
2022-08-30T19:46:38.287Z,95756.78
2022-08-30T19:49:06.908Z,95754.34
2022-08-30T19:51:34.186Z,95752.22
2022-08-30T19:54:05.047Z,95755.72
2022-08-30T19:56:35.747Z,95762.13
2022-08-30T19:59:03.607Z,95769.31
2022-08-30T20:01:33.664Z,95762.09
2022-08-30T20:04:02.455Z,95764.50
2022-08-30T20:06:33.387Z,95768.28
2022-08-30T20:09:03.469Z,95766.94
2022-08-30T20:11:31.064Z,95775.22
2022-08-30T20:13:58.460Z,95772.28
2022-08-30T20:16:35.463Z,95766.94
2022-08-30T20:19:10.067Z,95766.94
2022-08-30T20:21:39.307Z,95763.19
2022-08-30T20:24:10.066Z,95758.66
2022-08-30T20:26:40.838Z,95760.00
2022-08-30T20:29:08.907Z,95762.38
2022-08-30T20:31:36.918Z,95757.06
2022-08-30T20:34:05.458Z,95749.31
2022-08-30T20:36:32.827Z,95753.06
2022-08-30T20:39:02.330Z,95752.50
2022-08-30T20:41:29.568Z,95751.44
2022-08-30T20:43:56.648Z,95747.47
2022-08-30T20:46:24.371Z,95742.38
2022-08-30T20:48:51.689Z,95745.31
2022-08-30T20:51:21.528Z,95738.91
2022-08-30T20:53:49.727Z,95729.56
2022-08-30T20:56:21.532Z,95731.72
2022-08-30T20:58:51.229Z,95721.28
2022-08-30T21:01:19.322Z,95721.31
2022-08-30T21:03:46.568Z,95720.75
2022-08-30T21:06:14.552Z,95715.97
2022-08-30T21:08:41.609Z,95721.28
2022-08-30T21:11:09.607Z,95723.44
2022-08-30T21:13:38.648Z,95724.25
2022-08-30T21:16:07.362Z,95730.63
2022-08-30T21:18:36.647Z,95727.97
2022-08-30T21:21:08.928Z,95726.63
2022-08-30T21:23:36.788Z,95726.66
2022-08-30T21:26:05.151Z,95723.97
2022-08-30T21:28:32.488Z,95725.84
2022-08-30T21:31:11.118Z,95723.69
2022-08-30T21:33:39.369Z,95724.25
2022-08-30T21:36:08.107Z,95716.50
2022-08-30T21:38:35.226Z,95714.91
2022-08-30T21:41:02.409Z,95719.72
2022-08-30T21:43:29.528Z,95727.44
2022-08-30T21:45:56.719Z,95724.78
2022-08-30T21:48:25.407Z,95723.72
2022-08-30T21:50:52.566Z,95725.59
2022-08-30T21:53:19.855Z,95730.63
2022-08-30T21:55:48.008Z,95726.63
2022-08-30T21:58:15.406Z,95723.69
2022-08-30T22:00:42.546Z,95716.50
2022-08-30T22:03:09.719Z,95715.97
2022-08-30T22:05:38.527Z,95711.97
2022-08-30T22:08:05.629Z,95717.03
2022-08-30T22:10:33.442Z,95716.78
2022-08-30T22:13:00.768Z,95719.44
2022-08-30T22:15:27.867Z,95723.97
2022-08-30T22:17:54.968Z,95724.78
2022-08-30T22:20:22.099Z,95727.16
2022-08-30T22:22:52.568Z,95719.69
2022-08-30T22:25:19.707Z,95727.16
2022-08-30T22:27:46.917Z,95719.16
2022-08-30T22:30:14.390Z,95730.91
2022-08-30T22:32:41.768Z,95738.09
2022-08-30T22:35:09.467Z,95729.31
2022-08-30T22:37:36.546Z,95728.50
2022-08-30T22:40:06.299Z,95725.81
2022-08-30T22:42:33.478Z,95725.56
2022-08-30T22:45:00.678Z,95737.03
2022-08-30T22:47:27.847Z,95727.44
2022-08-30T22:49:55.127Z,95729.03
2022-08-30T22:52:25.481Z,95723.97
2022-08-30T22:54:52.887Z,95726.91
2022-08-30T22:57:23.848Z,95731.97
2022-08-30T22:59:51.027Z,95738.38
2022-08-30T23:02:18.430Z,95737.59
2022-08-30T23:04:45.588Z,95727.16
2022-08-30T23:07:12.729Z,95729.56
2022-08-30T23:09:39.861Z,95731.69
2022-08-30T23:12:07.288Z,95726.63
2022-08-30T23:14:35.809Z,95726.09
2022-08-30T23:17:02.888Z,95721.56
2022-08-30T23:19:29.968Z,95723.19
2022-08-30T23:21:57.048Z,95710.34
2022-08-30T23:24:24.147Z,95719.97
2022-08-30T23:26:51.307Z,95716.50
2022-08-30T23:29:18.428Z,95725.59
2022-08-30T23:31:47.051Z,95723.69
2022-08-30T23:34:14.289Z,95722.38
2022-08-30T23:36:41.648Z,95718.38
2022-08-30T23:39:08.827Z,95709.00
2022-08-30T23:41:35.930Z,95721.03
2022-08-30T23:44:03.627Z,95721.84
2022-08-30T23:46:30.767Z,95718.91
2022-08-30T23:48:59.307Z,95724.75
2022-08-30T23:51:26.447Z,95718.91
2022-08-30T23:53:53.527Z,95714.91
2022-08-30T23:56:20.689Z,95720.25
2022-08-30T23:58:47.807Z,95712.75
